Terminal Aerodrome Forecast
Issued by NWS

Home | Current Version | Previous Version | Text Only | Print | Product List | Glossary On
Versions: 1 2 3 4 5 6 7 8 9 10 11 12 13 14 15 16 17 18 19 20 21 22 23 24
180
FTUS43 KLSX 301722
TAFCPS
TAF
KCPS 301722Z 3018/3118 21010KT 6SM -RA VCTS OVC035CB
      TEMPO 3018/3019 VRB15G25KT 2SM +TSRAGR BR OVC020CB
     FM301900 24011KT P6SM VCSH OVC050
     FM302100 25009KT P6SM BKN040
     FM310500 27008KT 5SM -RA OVC015
     FM311000 30011KT P6SM OVC008
     FM311700 32010KT P6SM OVC015=

USA.gov is the U.S. government's official web portal to all federal, state and local government web resources and services.